Lafayette, CO

1:17 PM MST on February 20, 2017 (GMT -0700)
Erie Municipal Airport

Weather History for KEIK - March, 2013

Change the Weather History Date:

Monday, March 4, 2013

  Actual Average (KBJC) Record (KBJC)
Temperature  
Mean Temperature 30 °F -  
Max Temperature 46 °F 46 °F 73 °F (2009)
Min Temperature 13 °F 25 °F 6 °F (1985)
Degree Days  
Heating Degree Days 36    
Moisture  
Dew Point 22 °F    
Average Humidity 76    
Maximum Humidity 96    
Minimum Humidity 42    
Precipitation  
Precipitation 0.00 in - - ()
Sea Level Pressure  
Sea Level Pressure 29.92 in    
Wind  
Wind Speed 4 mph (ESE)    
Max Wind Speed 15 mph    
Max Gust Speed 20 mph    
Visibility 9 miles    
Events Snow    
Averages and records for this station are not official NWS values.
T = Trace of Precipitation, MM = Missing Value Source: NWS Daily Summary

Daily Weather History Graph

Daily Weather History Graph

Search for Another Location

Airport or City:

Trip Planner

Search our weather history database for the weather conditions in past years. The results will help you decide how hot, cold, wet, or windy it might be!

Date:

Astronomy

Mar. 04, 2013 Rise Set
Actual Time 6:28 AM MST 5:55 PM MST
Civil Twilight 6:01 AM MST 6:22 PM MST
Nautical Twilight 5:30 AM MST 6:54 PM MST
Astronomical Twilight 4:58 AM MST 7:25 PM MST
Moon 12:40 AM MST (3/4) 10:39 AM MST (3/4)
Length of Visible Light 12h 21m
Length of Day
11h 27m
Waning Gibbous, 51% of the Moon is Illuminated
Mar 4
Waning Gibbous
Mar 4
Last Quarter
Mar 11
New
Mar 19
First Quarter
Mar 27
Full

Hourly Weather History & Observations

Time (MST) Temp. Windchill Dew Point Humidity Pressure Visibility Wind Dir Wind Speed Gust Speed Precip Events Conditions
12:09 AM 46.8 °F - 24.4 °F 42% 29.67 in 10.0 mi West 5.8 mph - N/A   Clear
12:28 AM 41.5 °F - 25.5 °F 53% 29.68 in 10.0 mi Calm Calm - N/A   Clear
12:48 AM 40.5 °F - 25.7 °F 56% 29.68 in 10.0 mi Calm Calm - N/A   Clear
1:09 AM 37.0 °F - 26.6 °F 66% 29.68 in 10.0 mi Calm Calm - N/A   Clear
1:29 AM 38.8 °F - 26.2 °F 61% 29.68 in 10.0 mi Calm Calm - N/A   Clear
1:48 AM 41.4 °F 38.4 °F 25.5 °F 53% 29.68 in 10.0 mi West 4.6 mph - N/A   Clear
2:09 AM 46.9 °F - 24.6 °F 42% 29.68 in 10.0 mi West 3.5 mph - N/A   Clear
2:29 AM 44.6 °F - 24.6 °F 45% 29.68 in 10.0 mi Calm Calm - N/A   Clear
2:50 AM 42.3 °F - 25.2 °F 51% 29.67 in 10.0 mi Calm Calm - N/A   Clear
3:08 AM 40.3 °F - 25.9 °F 56% 29.68 in 10.0 mi Calm Calm - N/A   Clear
3:28 AM 38.3 °F 35.9 °F 26.6 °F 63% 29.69 in 10.0 mi WSW 3.5 mph - N/A   Clear
3:48 AM 41.2 °F 34.5 °F 27.3 °F 58% 29.70 in 10.0 mi East 11.5 mph - N/A   Clear
4:08 AM 32.5 °F 25.5 °F 28.4 °F 85% 29.74 in 10.0 mi ENE 8.1 mph 17.3 mph N/A   Clear
4:31 AM 31.1 °F 22.4 °F 27.3 °F 86% 29.76 in 10.0 mi NNE 10.4 mph - N/A   Scattered Clouds
4:49 AM 30.9 °F 26.2 °F 27.3 °F 86% 29.80 in 10.0 mi NNE 4.6 mph - N/A   Mostly Cloudy
5:09 AM 30.6 °F 22.4 °F 27.0 °F 86% 29.81 in 10.0 mi NNE 9.2 mph - N/A   Overcast
5:29 AM 30.2 °F - 26.6 °F 86% 29.83 in 10.0 mi Calm Calm - N/A   Overcast
5:49 AM 30.2 °F - 25.5 °F 83% 29.82 in 10.0 mi Calm Calm - N/A   Mostly Cloudy
6:11 AM 29.3 °F - 24.8 °F 83% 29.83 in 10.0 mi Calm Calm - N/A   Scattered Clouds
6:30 AM 28.2 °F 23.1 °F 23.7 °F 83% 29.84 in 10.0 mi East 4.6 mph - N/A   Scattered Clouds
6:50 AM 28.2 °F - 23.7 °F 83% 29.84 in 10.0 mi Calm Calm - N/A   Scattered Clouds
7:11 AM 28.9 °F 23.9 °F 24.8 °F 84% 29.85 in 10.0 mi SSE 4.6 mph - N/A   Scattered Clouds
7:28 AM 30.2 °F 24.3 °F 25.0 °F 81% 29.85 in 10.0 mi SE 5.8 mph - N/A   Mostly Cloudy
7:50 AM 30.7 °F 24.9 °F 23.9 °F 76% 29.85 in 10.0 mi SE 5.8 mph - N/A   Overcast
8:11 AM 31.8 °F 23.9 °F 24.8 °F 75% 29.86 in 10.0 mi SE 9.2 mph - N/A   Overcast
8:30 AM 31.8 °F 23.9 °F 22.6 °F 69% 29.86 in 10.0 mi ESE 9.2 mph - N/A   Overcast
8:50 AM 32.0 °F 24.2 °F 21.4 °F 65% 29.85 in 10.0 mi ESE 9.2 mph - N/A   Overcast
9:11 AM 32.2 °F 23.8 °F 21.4 °F 64% 29.84 in 10.0 mi ESE 10.4 mph - N/A   Overcast
9:29 AM 32.5 °F 27.1 °F 21.7 °F 64% 29.85 in 10.0 mi ENE 5.8 mph - N/A   Overcast
9:50 AM 32.9 °F 25.3 °F 21.9 °F 64% 29.84 in 10.0 mi ENE 9.2 mph - N/A   Overcast
10:10 AM 33.3 °F 27.1 °F 22.8 °F 66% 29.84 in 10.0 mi East 6.9 mph - N/A   Overcast
10:32 AM 33.8 °F 28.6 °F 23.5 °F 66% 29.84 in 10.0 mi ENE 5.8 mph - N/A   Overcast
10:50 AM 34.2 °F 28.2 °F 24.1 °F 67% 29.84 in 10.0 mi East 6.9 mph - N/A   Overcast
11:11 AM 34.7 °F 26.9 °F 24.3 °F 66% 29.84 in 10.0 mi ENE 10.4 mph - N/A   Overcast
11:52 AM 32.0 °F 22.1 °F 22.1 °F 67% 29.86 in 10.0 mi NE 13.8 mph - N/A   Overcast
12:11 PM 31.1 °F 20.5 °F 22.5 °F 70% 29.88 in 10.0 mi NNE 15.0 mph 19.6 mph N/A   Overcast
12:30 PM 30.0 °F 21.1 °F 23.9 °F 78% 29.89 in 1.2 mi NNE 10.4 mph - N/A Snow Light Snow
12:50 PM 28.8 °F 22.6 °F 26.6 °F 92% 29.90 in 0.5 mi North 5.8 mph - N/A Snow Snow
1:10 PM 28.8 °F 25.0 °F 27.5 °F 95% 29.93 in 0.5 mi NNW 3.5 mph - N/A Snow Snow
1:31 PM 28.8 °F 23.7 °F 27.9 °F 96% 29.94 in 0.2 mi North 4.6 mph - N/A Snow Snow
1:51 PM 27.9 °F 16.8 °F 26.6 °F 95% 29.92 in 0.5 mi NNE 13.8 mph - N/A Snow Snow
2:10 PM 28.0 °F 17.5 °F 26.6 °F 94% 29.94 in 0.5 mi NE 12.7 mph - N/A Snow Snow
2:31 PM 27.9 °F 22.6 °F 25.9 °F 92% 29.96 in 2.0 mi NNE 4.6 mph 10.4 mph N/A Snow Light Snow
2:50 PM 28.2 °F 24.4 °F 25.7 °F 90% 29.97 in 10.0 mi North 3.5 mph - N/A   Overcast
3:10 PM 28.4 °F - 24.8 °F 86% 29.99 in 1.2 mi Calm Calm - N/A Snow Light Snow
3:31 PM 28.9 °F 25.2 °F 24.3 °F 83% 29.98 in 10.0 mi SSE 3.5 mph - N/A   Mostly Cloudy
3:50 PM 30.2 °F 26.7 °F 24.1 °F 78% 29.99 in 10.0 mi SE 3.5 mph - N/A   Clear
4:10 PM 30.0 °F 24.1 °F 23.7 °F 77% 30.01 in 10.0 mi South 5.8 mph - N/A   Clear
4:30 PM 29.1 °F 25.4 °F 23.7 °F 80% 30.02 in 10.0 mi South 3.5 mph - N/A   Mostly Cloudy
4:51 PM 29.7 °F 26.1 °F 23.4 °F 77% 30.03 in 10.0 mi SW 3.5 mph - N/A   Overcast
5:10 PM 29.8 °F 24.9 °F 22.5 °F 74% 30.05 in 10.0 mi South 4.6 mph - N/A   Scattered Clouds
5:30 PM 28.2 °F - 22.1 °F 78% 30.05 in 10.0 mi Calm Calm - N/A   Clear
5:51 PM 26.1 °F - 21.7 °F 84% 30.07 in 10.0 mi Calm Calm - N/A   Scattered Clouds
6:10 PM 23.0 °F - 19.9 °F 88% 30.08 in 10.0 mi Calm Calm - N/A   Scattered Clouds
6:31 PM 19.0 °F 13.9 °F 17.6 °F 94% 30.09 in 10.0 mi SSW 3.5 mph - N/A   Clear
6:50 PM 18.9 °F 12.1 °F 17.2 °F 93% 30.10 in 10.0 mi South 4.6 mph - N/A   Clear
7:09 PM 20.3 °F 13.8 °F 18.1 °F 91% 30.11 in 10.0 mi SW 4.6 mph - N/A   Clear
7:31 PM 18.1 °F 11.3 °F 16.2 °F 92% 30.12 in 10.0 mi South 4.6 mph - N/A   Clear
7:51 PM 19.6 °F - 14.5 °F 81% 30.13 in 10.0 mi Calm Calm - N/A   Clear
8:10 PM 16.9 °F - 14.2 °F 89% 30.14 in 10.0 mi Calm Calm - N/A   Clear
8:30 PM 18.1 °F 8.9 °F 13.8 °F 83% 30.15 in 10.0 mi South 6.9 mph - N/A   Clear
8:51 PM 20.1 °F 11.3 °F 12.9 °F 74% 30.17 in 10.0 mi SSE 6.9 mph - N/A   Clear
9:10 PM 21.4 °F 11.9 °F 12.2 °F 68% 30.17 in 10.0 mi SSE 8.1 mph - N/A   Clear
9:30 PM 20.8 °F 14.4 °F 12.0 °F 69% 30.18 in 10.0 mi SSE 4.6 mph - N/A   Clear
9:51 PM 20.3 °F 12.5 °F 10.8 °F 67% 30.19 in 10.0 mi SE 5.8 mph - N/A   Clear
10:10 PM 18.3 °F - 9.0 °F 67% 30.19 in 10.0 mi Calm Calm - N/A   Clear
10:30 PM 13.3 °F - 8.1 °F 80% 30.20 in 10.0 mi Calm Calm - N/A   Clear
10:50 PM 14.5 °F - 8.8 °F 78% 30.20 in 10.0 mi Calm Calm - N/A   Clear
11:10 PM 13.5 °F - 8.4 °F 80% 30.20 in 10.0 mi Calm Calm - N/A   Clear
11:30 PM 13.6 °F - 9.7 °F 84% 30.20 in 10.0 mi Calm Calm - N/A   Clear
11:48 PM 14.4 °F - 10.0 °F 83% 30.21 in 10.0 mi Calm Calm - N/A   Clear